This is the latest recevied weather packets stored in our database for station/object 9W4GWK-G. If no packets are shown the sender has not sent any weather packets the latest 10 day(s).
| Time | Temp. | Humidity | Pressure | Rain* | Wind** | Luminosity | Snow |
|---|---|---|---|---|---|---|---|
| 1777555057 | 25.56° C | 50% | 1010 hPa | - | - | - | - |
| 1777554155 | 26.11° C | 50% | 1010.3 hPa | - | - | - | - |
| 1777553253 | 26.11° C | 49% | 1010 hPa | - | - | - | - |
| 1777552351 | 26.67° C | 51% | 1009.6 hPa | - | - | - | - |
| 1777551448 | 27.78° C | 46% | 1009.5 hPa | - | - | - | - |
| 1777550546 | 28.89° C | 48% | 1009.3 hPa | - | - | - | - |
| 1777549644 | 30.56° C | 50% | 1008.9 hPa | - | - | - | - |
| 1777548742 | 32.78° C | 65% | 1008.8 hPa | - | - | - | - |
| 1777547840 | 32.78° C | 65% | 1008.5 hPa | - | - | - | - |
| 1777546939 | 32.78° C | 64% | 1008 hPa | - | - | - | - |
| 1777546037 | 32.78° C | 62% | 1007.9 hPa | - | - | - | - |
| 1777545135 | 32.78° C | 61% | 1007.5 hPa | - | - | - | - |
| 1777544232 | 32.78° C | 60% | 1007.4 hPa | - | - | - | - |
| 1777543330 | 32.78° C | 58% | 1007.9 hPa | - | - | - | - |
| 1777542428 | 32.78° C | 60% | 1007.8 hPa | - | - | - | - |
| 1777541526 | 32.78° C | 60% | 1007.4 hPa | - | - | - | - |
| 1777540624 | 32.78° C | 61% | 1007.8 hPa | - | - | - | - |
| 1777539722 | 32.78° C | 61% | 1007.5 hPa | - | - | - | - |
| 1777538820 | 33.33° C | 61% | 1007.2 hPa | - | - | - | - |
| 1777537918 | 33.33° C | 62% | 1007.7 hPa | - | - | - | - |
| 1777537016 | 33.33° C | 61% | 1008.3 hPa | - | - | - | - |
| 1777536114 | 33.89° C | 61% | 1007.8 hPa | - | - | - | - |
| 1777535212 | 33.89° C | 59% | 1007.6 hPa | - | - | - | - |
| 1777534310 | 33.89° C | 59% | 1007.7 hPa | - | - | - | - |
| 1777533409 | 33.89° C | 59% | 1007.9 hPa | - | - | - | - |
* Rain since midnight (hover to see other rain measurements)
** Current wind speed in m/s (hover to see current wind gust speed)